sensor_id;sensor_type;location;lat;lon;timestamp;P1;durP1;ratioP1;P2;durP2;ratioP2
51961;SDS011;37986;51.238;17.128;2024-01-30T00:00:08;0.70;;;0.70;;
51961;SDS011;37986;51.238;17.128;2024-01-30T00:02:55;0.90;;;0.90;;
51961;SDS011;37986;51.238;17.128;2024-01-30T00:05:22;4.90;;;4.50;;
51961;SDS011;37986;51.238;17.128;2024-01-30T00:07:48;0.50;;;0.50;;
51961;SDS011;37986;51.238;17.128;2024-01-30T00:10:15;2.50;;;2.30;;
51961;SDS011;37986;51.238;17.128;2024-01-30T00:12:41;1.70;;;1.30;;
51961;SDS011;37986;51.238;17.128;2024-01-30T00:15:08;1.50;;;1.40;;
51961;SDS011;37986;51.238;17.128;2024-01-30T00:17:36;1.40;;;1.40;;
51961;SDS011;37986;51.238;17.128;2024-01-30T00:20:03;0.60;;;0.60;;
51961;SDS011;37986;51.238;17.128;2024-01-30T00:22:31;9.30;;;8.60;;
51961;SDS011;37986;51.238;17.128;2024-01-30T00:24:58;1.10;;;1.10;;
51961;SDS011;37986;51.238;17.128;2024-01-30T00:27:25;0.50;;;0.50;;
51961;SDS011;37986;51.238;17.128;2024-01-30T00:29:52;2.20;;;2.20;;
51961;SDS011;37986;51.238;17.128;2024-01-30T00:32:18;1.20;;;1.20;;
51961;SDS011;37986;51.238;17.128;2024-01-30T00:34:45;1.10;;;1.10;;
51961;SDS011;37986;51.238;17.128;2024-01-30T00:37:12;1.30;;;1.30;;
51961;SDS011;37986;51.238;17.128;2024-01-30T00:39:38;2.40;;;2.30;;
51961;SDS011;37986;51.238;17.128;2024-01-30T00:42:05;3.60;;;3.30;;
51961;SDS011;37986;51.238;17.128;2024-01-30T00:44:34;7.30;;;3.60;;
51961;SDS011;37986;51.238;17.128;2024-01-30T00:47:02;3.40;;;2.10;;
51961;SDS011;37986;51.238;17.128;2024-01-30T00:49:28;4.90;;;3.10;;
51961;SDS011;37986;51.238;17.128;2024-01-30T00:51:55;11.60;;;5.70;;
51961;SDS011;37986;51.238;17.128;2024-01-30T00:54:21;3.60;;;3.30;;
51961;SDS011;37986;51.238;17.128;2024-01-30T00:56:48;7.20;;;4.60;;
51961;SDS011;37986;51.238;17.128;2024-01-30T00:59:15;9.00;;;3.50;;
51961;SDS011;37986;51.238;17.128;2024-01-30T01:01:41;13.60;;;5.40;;
51961;SDS011;37986;51.238;17.128;2024-01-30T01:04:08;7.90;;;4.90;;
51961;SDS011;37986;51.238;17.128;2024-01-30T01:06:34;8.80;;;4.20;;
51961;SDS011;37986;51.238;17.128;2024-01-30T01:09:01;3.80;;;3.30;;
51961;SDS011;37986;51.238;17.128;2024-01-30T01:11:29;4.30;;;3.90;;
51961;SDS011;37986;51.238;17.128;2024-01-30T01:13:55;7.20;;;3.60;;
51961;SDS011;37986;51.238;17.128;2024-01-30T01:16:22;8.10;;;4.90;;
51961;SDS011;37986;51.238;17.128;2024-01-30T01:18:48;5.20;;;3.70;;
51961;SDS011;37986;51.238;17.128;2024-01-30T01:21:15;11.40;;;6.40;;
51961;SDS011;37986;51.238;17.128;2024-01-30T01:23:41;6.30;;;4.30;;
51961;SDS011;37986;51.238;17.128;2024-01-30T01:26:08;6.60;;;4.40;;
51961;SDS011;37986;51.238;17.128;2024-01-30T01:28:36;7.40;;;4.10;;
51961;SDS011;37986;51.238;17.128;2024-01-30T01:31:02;12.00;;;4.90;;
51961;SDS011;37986;51.238;17.128;2024-01-30T01:33:32;3.70;;;3.10;;
51961;SDS011;37986;51.238;17.128;2024-01-30T01:35:59;9.30;;;3.50;;
51961;SDS011;37986;51.238;17.128;2024-01-30T01:38:28;2.40;;;2.30;;
51961;SDS011;37986;51.238;17.128;2024-01-30T01:40:55;1.80;;;1.60;;
51961;SDS011;37986;51.238;17.128;2024-01-30T01:43:22;1.00;;;1.00;;
51961;SDS011;37986;51.238;17.128;2024-01-30T01:45:48;1.80;;;1.70;;
51961;SDS011;37986;51.238;17.128;2024-01-30T01:48:15;2.40;;;2.30;;
51961;SDS011;37986;51.238;17.128;2024-01-30T01:50:42;1.50;;;1.40;;
51961;SDS011;37986;51.238;17.128;2024-01-30T01:53:09;0.70;;;0.70;;
51961;SDS011;37986;51.238;17.128;2024-01-30T01:55:36;6.30;;;2.70;;
51961;SDS011;37986;51.238;17.128;2024-01-30T01:58:03;0.90;;;0.90;;
51961;SDS011;37986;51.238;17.128;2024-01-30T02:00:29;1.00;;;1.00;;
51961;SDS011;37986;51.238;17.128;2024-01-30T02:02:57;1.80;;;1.80;;
51961;SDS011;37986;51.238;17.128;2024-01-30T02:05:24;0.70;;;0.70;;
51961;SDS011;37986;51.238;17.128;2024-01-30T02:07:51;0.80;;;0.80;;
51961;SDS011;37986;51.238;17.128;2024-01-30T02:10:17;0.60;;;0.60;;
51961;SDS011;37986;51.238;17.128;2024-01-30T02:12:44;0.70;;;0.70;;
51961;SDS011;37986;51.238;17.128;2024-01-30T02:15:13;0.60;;;0.60;;
51961;SDS011;37986;51.238;17.128;2024-01-30T02:17:40;0.60;;;0.60;;
51961;SDS011;37986;51.238;17.128;2024-01-30T02:20:06;2.10;;;2.00;;
51961;SDS011;37986;51.238;17.128;2024-01-30T02:22:33;0.90;;;0.90;;
51961;SDS011;37986;51.238;17.128;2024-01-30T02:25:01;3.40;;;3.10;;
51961;SDS011;37986;51.238;17.128;2024-01-30T02:27:27;1.40;;;1.40;;
51961;SDS011;37986;51.238;17.128;2024-01-30T02:29:54;0.80;;;0.80;;
51961;SDS011;37986;51.238;17.128;2024-01-30T02:32:20;1.10;;;1.10;;
51961;SDS011;37986;51.238;17.128;2024-01-30T02:34:47;1.10;;;1.10;;
51961;SDS011;37986;51.238;17.128;2024-01-30T02:37:13;2.30;;;1.20;;
51961;SDS011;37986;51.238;17.128;2024-01-30T02:39:40;2.40;;;2.20;;
51961;SDS011;37986;51.238;17.128;2024-01-30T02:42:06;3.90;;;3.20;;
51961;SDS011;37986;51.238;17.128;2024-01-30T02:44:33;2.00;;;1.80;;
51961;SDS011;37986;51.238;17.128;2024-01-30T02:46:59;1.60;;;1.60;;
51961;SDS011;37986;51.238;17.128;2024-01-30T02:49:26;6.90;;;2.50;;
51961;SDS011;37986;51.238;17.128;2024-01-30T02:51:53;10.80;;;5.20;;
51961;SDS011;37986;51.238;17.128;2024-01-30T02:54:20;5.80;;;2.60;;
51961;SDS011;37986;51.238;17.128;2024-01-30T02:56:47;8.50;;;3.60;;
51961;SDS011;37986;51.238;17.128;2024-01-30T02:59:14;6.30;;;4.00;;
51961;SDS011;37986;51.238;17.128;2024-01-30T03:01:44;10.60;;;5.10;;
51961;SDS011;37986;51.238;17.128;2024-01-30T03:04:11;6.60;;;4.50;;
51961;SDS011;37986;51.238;17.128;2024-01-30T03:06:38;15.60;;;6.80;;
51961;SDS011;37986;51.238;17.128;2024-01-30T03:09:04;20.90;;;7.00;;
51961;SDS011;37986;51.238;17.128;2024-01-30T03:11:31;6.80;;;6.10;;
51961;SDS011;37986;51.238;17.128;2024-01-30T03:13:58;10.90;;;7.60;;
51961;SDS011;37986;51.238;17.128;2024-01-30T03:16:24;6.30;;;5.50;;
51961;SDS011;37986;51.238;17.128;2024-01-30T03:18:51;23.40;;;9.20;;
51961;SDS011;37986;51.238;17.128;2024-01-30T03:21:17;5.90;;;3.30;;
51961;SDS011;37986;51.238;17.128;2024-01-30T03:23:44;10.60;;;5.00;;
51961;SDS011;37986;51.238;17.128;2024-01-30T03:26:10;7.00;;;3.60;;
51961;SDS011;37986;51.238;17.128;2024-01-30T03:28:38;6.50;;;5.20;;
51961;SDS011;37986;51.238;17.128;2024-01-30T03:31:05;4.40;;;4.00;;
51961;SDS011;37986;51.238;17.128;2024-01-30T03:33:31;3.50;;;3.20;;
51961;SDS011;37986;51.238;17.128;2024-01-30T03:36:02;6.20;;;3.70;;
51961;SDS011;37986;51.238;17.128;2024-01-30T03:38:29;3.70;;;3.40;;
51961;SDS011;37986;51.238;17.128;2024-01-30T03:40:56;4.20;;;3.10;;
51961;SDS011;37986;51.238;17.128;2024-01-30T03:43:22;5.60;;;3.30;;
51961;SDS011;37986;51.238;17.128;2024-01-30T03:45:49;5.00;;;2.80;;
51961;SDS011;37986;51.238;17.128;2024-01-30T03:48:15;5.30;;;2.70;;
51961;SDS011;37986;51.238;17.128;2024-01-30T03:50:42;7.80;;;4.10;;
51961;SDS011;37986;51.238;17.128;2024-01-30T03:53:08;8.50;;;3.60;;
51961;SDS011;37986;51.238;17.128;2024-01-30T03:55:35;2.60;;;2.40;;
51961;SDS011;37986;51.238;17.128;2024-01-30T03:58:01;8.40;;;3.10;;
51961;SDS011;37986;51.238;17.128;2024-01-30T04:00:28;4.50;;;4.10;;
51961;SDS011;37986;51.238;17.128;2024-01-30T04:02:55;9.30;;;5.50;;
51961;SDS011;37986;51.238;17.128;2024-01-30T04:05:21;13.50;;;5.90;;
51961;SDS011;37986;51.238;17.128;2024-01-30T04:07:48;10.40;;;4.40;;
51961;SDS011;37986;51.238;17.128;2024-01-30T04:10:15;6.40;;;5.40;;
51961;SDS011;37986;51.238;17.128;2024-01-30T04:12:41;3.50;;;3.20;;
51961;SDS011;37986;51.238;17.128;2024-01-30T04:15:08;13.80;;;6.00;;
51961;SDS011;37986;51.238;17.128;2024-01-30T04:17:35;8.60;;;6.70;;
51961;SDS011;37986;51.238;17.128;2024-01-30T04:20:02;10.60;;;5.60;;
51961;SDS011;37986;51.238;17.128;2024-01-30T04:22:29;7.00;;;4.30;;
51961;SDS011;37986;51.238;17.128;2024-01-30T04:24:55;21.80;;;5.10;;
51961;SDS011;37986;51.238;17.128;2024-01-30T04:27:22;5.10;;;4.10;;
51961;SDS011;37986;51.238;17.128;2024-01-30T04:29:49;6.80;;;4.70;;
51961;SDS011;37986;51.238;17.128;2024-01-30T04:32:15;10.90;;;5.10;;
51961;SDS011;37986;51.238;17.128;2024-01-30T04:34:42;6.50;;;4.50;;
51961;SDS011;37986;51.238;17.128;2024-01-30T04:37:08;5.00;;;4.50;;
51961;SDS011;37986;51.238;17.128;2024-01-30T04:39:35;13.80;;;6.00;;
51961;SDS011;37986;51.238;17.128;2024-01-30T04:42:01;9.30;;;5.20;;
51961;SDS011;37986;51.238;17.128;2024-01-30T04:44:28;5.30;;;3.80;;
51961;SDS011;37986;51.238;17.128;2024-01-30T04:46:54;15.00;;;6.90;;
51961;SDS011;37986;51.238;17.128;2024-01-30T04:49:25;13.20;;;7.20;;
51961;SDS011;37986;51.238;17.128;2024-01-30T04:51:51;3.70;;;3.40;;
51961;SDS011;37986;51.238;17.128;2024-01-30T04:54:18;10.60;;;6.60;;
51961;SDS011;37986;51.238;17.128;2024-01-30T04:56:44;11.00;;;6.20;;
51961;SDS011;37986;51.238;17.128;2024-01-30T04:59:11;15.60;;;8.40;;
51961;SDS011;37986;51.238;17.128;2024-01-30T05:01:38;13.60;;;4.40;;
51961;SDS011;37986;51.238;17.128;2024-01-30T05:04:07;9.90;;;5.60;;
51961;SDS011;37986;51.238;17.128;2024-01-30T05:06:34;5.90;;;4.40;;
51961;SDS011;37986;51.238;17.128;2024-01-30T05:09:00;8.50;;;6.90;;
51961;SDS011;37986;51.238;17.128;2024-01-30T05:11:27;13.70;;;8.70;;
51961;SDS011;37986;51.238;17.128;2024-01-30T05:13:53;8.60;;;5.00;;
51961;SDS011;37986;51.238;17.128;2024-01-30T05:16:20;9.40;;;5.70;;
51961;SDS011;37986;51.238;17.128;2024-01-30T05:18:46;4.60;;;4.00;;
51961;SDS011;37986;51.238;17.128;2024-01-30T05:21:13;10.50;;;5.40;;
51961;SDS011;37986;51.238;17.128;2024-01-30T05:23:39;8.40;;;5.80;;
51961;SDS011;37986;51.238;17.128;2024-01-30T05:26:08;10.50;;;5.60;;
51961;SDS011;37986;51.238;17.128;2024-01-30T05:28:34;6.40;;;4.00;;
51961;SDS011;37986;51.238;17.128;2024-01-30T05:31:01;6.30;;;5.80;;
51961;SDS011;37986;51.238;17.128;2024-01-30T05:33:27;4.00;;;3.70;;
51961;SDS011;37986;51.238;17.128;2024-01-30T05:35:54;6.10;;;4.20;;
51961;SDS011;37986;51.238;17.128;2024-01-30T05:38:20;4.30;;;3.50;;
51961;SDS011;37986;51.238;17.128;2024-01-30T05:40:47;3.10;;;2.80;;
51961;SDS011;37986;51.238;17.128;2024-01-30T05:43:14;5.60;;;4.30;;
51961;SDS011;37986;51.238;17.128;2024-01-30T05:45:40;2.90;;;2.40;;
51961;SDS011;37986;51.238;17.128;2024-01-30T05:48:07;4.30;;;3.50;;
51961;SDS011;37986;51.238;17.128;2024-01-30T05:50:34;1.60;;;1.60;;
51961;SDS011;37986;51.238;17.128;2024-01-30T05:53:00;2.20;;;2.10;;
51961;SDS011;37986;51.238;17.128;2024-01-30T05:55:27;2.20;;;2.10;;
51961;SDS011;37986;51.238;17.128;2024-01-30T05:57:53;2.60;;;2.20;;
51961;SDS011;37986;51.238;17.128;2024-01-30T06:00:20;3.70;;;3.40;;
51961;SDS011;37986;51.238;17.128;2024-01-30T06:02:46;7.30;;;3.90;;
51961;SDS011;37986;51.238;17.128;2024-01-30T06:05:13;1.00;;;1.00;;
51961;SDS011;37986;51.238;17.128;2024-01-30T06:07:39;8.80;;;4.60;;
51961;SDS011;37986;51.238;17.128;2024-01-30T06:10:06;10.90;;;3.70;;
51961;SDS011;37986;51.238;17.128;2024-01-30T06:12:35;3.80;;;2.50;;
51961;SDS011;37986;51.238;17.128;2024-01-30T06:15:02;5.00;;;4.30;;
51961;SDS011;37986;51.238;17.128;2024-01-30T06:17:28;11.70;;;7.00;;
51961;SDS011;37986;51.238;17.128;2024-01-30T06:19:55;3.90;;;3.60;;
51961;SDS011;37986;51.238;17.128;2024-01-30T06:22:22;7.40;;;6.20;;
51961;SDS011;37986;51.238;17.128;2024-01-30T06:24:48;9.80;;;4.30;;
51961;SDS011;37986;51.238;17.128;2024-01-30T06:27:15;3.50;;;3.00;;
51961;SDS011;37986;51.238;17.128;2024-01-30T06:29:45;9.00;;;5.50;;
51961;SDS011;37986;51.238;17.128;2024-01-30T06:32:12;2.90;;;2.30;;
51961;SDS011;37986;51.238;17.128;2024-01-30T06:34:38;5.00;;;4.40;;
51961;SDS011;37986;51.238;17.128;2024-01-30T06:37:06;10.80;;;5.20;;
51961;SDS011;37986;51.238;17.128;2024-01-30T06:39:32;5.00;;;3.40;;
51961;SDS011;37986;51.238;17.128;2024-01-30T06:41:59;7.10;;;6.30;;
51961;SDS011;37986;51.238;17.128;2024-01-30T06:44:25;10.30;;;5.50;;
51961;SDS011;37986;51.238;17.128;2024-01-30T06:46:52;8.80;;;4.60;;
51961;SDS011;37986;51.238;17.128;2024-01-30T06:49:19;4.00;;;3.50;;
51961;SDS011;37986;51.238;17.128;2024-01-30T06:51:45;3.00;;;2.60;;
51961;SDS011;37986;51.238;17.128;2024-01-30T06:54:12;4.50;;;3.70;;
51961;SDS011;37986;51.238;17.128;2024-01-30T06:56:38;3.20;;;3.00;;
51961;SDS011;37986;51.238;17.128;2024-01-30T06:59:05;33.60;;;7.20;;
51961;SDS011;37986;51.238;17.128;2024-01-30T07:01:32;4.10;;;3.40;;
51961;SDS011;37986;51.238;17.128;2024-01-30T07:03:58;5.60;;;4.60;;
51961;SDS011;37986;51.238;17.128;2024-01-30T07:06:25;9.30;;;8.30;;
51961;SDS011;37986;51.238;17.128;2024-01-30T07:08:51;18.60;;;8.10;;
51961;SDS011;37986;51.238;17.128;2024-01-30T07:11:18;8.80;;;6.20;;
51961;SDS011;37986;51.238;17.128;2024-01-30T07:13:46;21.70;;;10.80;;
51961;SDS011;37986;51.238;17.128;2024-01-30T07:16:13;29.50;;;9.30;;
51961;SDS011;37986;51.238;17.128;2024-01-30T07:18:40;19.00;;;8.00;;
51961;SDS011;37986;51.238;17.128;2024-01-30T07:21:07;18.30;;;7.20;;
51961;SDS011;37986;51.238;17.128;2024-01-30T07:23:33;10.00;;;8.40;;
51961;SDS011;37986;51.238;17.128;2024-01-30T07:26:01;7.30;;;5.30;;
51961;SDS011;37986;51.238;17.128;2024-01-30T07:28:27;9.10;;;4.00;;
51961;SDS011;37986;51.238;17.128;2024-01-30T07:30:54;2.10;;;2.10;;
51961;SDS011;37986;51.238;17.128;2024-01-30T07:33:20;1.00;;;1.00;;
51961;SDS011;37986;51.238;17.128;2024-01-30T07:35:47;2.90;;;2.70;;
51961;SDS011;37986;51.238;17.128;2024-01-30T07:38:14;4.60;;;4.20;;
51961;SDS011;37986;51.238;17.128;2024-01-30T07:40:40;10.30;;;8.00;;
51961;SDS011;37986;51.238;17.128;2024-01-30T07:43:07;6.30;;;5.70;;
51961;SDS011;37986;51.238;17.128;2024-01-30T07:45:34;18.20;;;12.60;;
51961;SDS011;37986;51.238;17.128;2024-01-30T07:48:01;14.00;;;10.60;;
51961;SDS011;37986;51.238;17.128;2024-01-30T07:50:27;7.60;;;5.00;;
51961;SDS011;37986;51.238;17.128;2024-01-30T07:52:59;46.50;;;25.80;;
51961;SDS011;37986;51.238;17.128;2024-01-30T07:55:26;11.50;;;8.40;;
51961;SDS011;37986;51.238;17.128;2024-01-30T07:57:55;15.30;;;11.20;;
51961;SDS011;37986;51.238;17.128;2024-01-30T08:00:21;9.50;;;7.20;;
51961;SDS011;37986;51.238;17.128;2024-01-30T08:02:48;17.70;;;5.40;;
51961;SDS011;37986;51.238;17.128;2024-01-30T08:05:15;35.20;;;10.90;;
51961;SDS011;37986;51.238;17.128;2024-01-30T08:07:41;9.60;;;5.00;;
51961;SDS011;37986;51.238;17.128;2024-01-30T08:10:12;3.70;;;3.40;;
51961;SDS011;37986;51.238;17.128;2024-01-30T08:12:39;6.50;;;4.30;;
51961;SDS011;37986;51.238;17.128;2024-01-30T08:15:06;1.90;;;1.60;;
51961;SDS011;37986;51.238;17.128;2024-01-30T08:17:33;1.10;;;1.10;;
51961;SDS011;37986;51.238;17.128;2024-01-30T08:20:00;6.00;;;5.50;;
51961;SDS011;37986;51.238;17.128;2024-01-30T08:22:26;3.90;;;3.40;;
51961;SDS011;37986;51.238;17.128;2024-01-30T08:24:53;14.80;;;4.50;;
51961;SDS011;37986;51.238;17.128;2024-01-30T08:27:20;2.50;;;2.00;;
51961;SDS011;37986;51.238;17.128;2024-01-30T08:29:47;6.10;;;2.10;;
51961;SDS011;37986;51.238;17.128;2024-01-30T08:32:13;3.00;;;2.30;;
51961;SDS011;37986;51.238;17.128;2024-01-30T08:34:40;0.70;;;0.70;;
51961;SDS011;37986;51.238;17.128;2024-01-30T08:37:07;1.90;;;1.80;;
51961;SDS011;37986;51.238;17.128;2024-01-30T08:39:33;1.20;;;1.10;;
51961;SDS011;37986;51.238;17.128;2024-01-30T08:42:00;2.40;;;2.20;;
51961;SDS011;37986;51.238;17.128;2024-01-30T08:44:27;2.20;;;1.90;;
51961;SDS011;37986;51.238;17.128;2024-01-30T08:46:53;1.70;;;1.50;;
51961;SDS011;37986;51.238;17.128;2024-01-30T08:49:20;2.10;;;2.00;;
51961;SDS011;37986;51.238;17.128;2024-01-30T08:51:47;1.00;;;1.00;;
51961;SDS011;37986;51.238;17.128;2024-01-30T08:54:13;12.90;;;3.40;;
51961;SDS011;37986;51.238;17.128;2024-01-30T08:56:40;0.80;;;0.80;;
51961;SDS011;37986;51.238;17.128;2024-01-30T08:59:06;2.00;;;1.80;;
51961;SDS011;37986;51.238;17.128;2024-01-30T09:01:33;2.00;;;1.30;;
51961;SDS011;37986;51.238;17.128;2024-01-30T09:03:59;2.00;;;1.90;;
51961;SDS011;37986;51.238;17.128;2024-01-30T09:06:26;2.40;;;2.30;;
51961;SDS011;37986;51.238;17.128;2024-01-30T09:08:54;2.50;;;2.30;;
51961;SDS011;37986;51.238;17.128;2024-01-30T09:11:21;5.70;;;1.60;;
51961;SDS011;37986;51.238;17.128;2024-01-30T09:13:47;0.90;;;0.80;;
51961;SDS011;37986;51.238;17.128;2024-01-30T09:16:14;1.50;;;1.40;;
51961;SDS011;37986;51.238;17.128;2024-01-30T09:18:42;5.00;;;2.20;;
51961;SDS011;37986;51.238;17.128;2024-01-30T09:21:09;6.50;;;1.90;;
51961;SDS011;37986;51.238;17.128;2024-01-30T09:23:36;3.00;;;2.60;;
51961;SDS011;37986;51.238;17.128;2024-01-30T09:26:02;2.50;;;0.90;;
51961;SDS011;37986;51.238;17.128;2024-01-30T09:28:29;2.20;;;2.00;;
51961;SDS011;37986;51.238;17.128;2024-01-30T09:30:55;1.10;;;1.10;;
51961;SDS011;37986;51.238;17.128;2024-01-30T09:33:22;1.50;;;1.50;;
51961;SDS011;37986;51.238;17.128;2024-01-30T09:35:48;0.40;;;0.40;;
51961;SDS011;37986;51.238;17.128;2024-01-30T09:38:15;0.70;;;0.70;;
51961;SDS011;37986;51.238;17.128;2024-01-30T09:40:41;1.60;;;1.50;;
51961;SDS011;37986;51.238;17.128;2024-01-30T09:43:08;1.90;;;1.80;;
51961;SDS011;37986;51.238;17.128;2024-01-30T09:45:38;3.00;;;2.50;;
51961;SDS011;37986;51.238;17.128;2024-01-30T09:48:05;0.50;;;0.50;;
51961;SDS011;37986;51.238;17.128;2024-01-30T09:50:32;0.80;;;0.80;;
51961;SDS011;37986;51.238;17.128;2024-01-30T09:52:59;0.70;;;0.70;;
51961;SDS011;37986;51.238;17.128;2024-01-30T09:55:26;0.90;;;0.90;;
51961;SDS011;37986;51.238;17.128;2024-01-30T09:57:52;0.40;;;0.40;;
51961;SDS011;37986;51.238;17.128;2024-01-30T10:00:19;1.60;;;0.90;;
51961;SDS011;37986;51.238;17.128;2024-01-30T10:02:46;0.40;;;0.40;;
51961;SDS011;37986;51.238;17.128;2024-01-30T10:05:15;0.60;;;0.50;;
51961;SDS011;37986;51.238;17.128;2024-01-30T10:07:55;0.90;;;0.90;;
51961;SDS011;37986;51.238;17.128;2024-01-30T10:10:23;0.30;;;0.30;;
51961;SDS011;37986;51.238;17.128;2024-01-30T10:12:49;2.70;;;1.70;;
51961;SDS011;37986;51.238;17.128;2024-01-30T10:15:17;0.60;;;0.60;;
51961;SDS011;37986;51.238;17.128;2024-01-30T10:17:44;0.40;;;0.40;;
51961;SDS011;37986;51.238;17.128;2024-01-30T10:20:12;1.10;;;1.10;;
51961;SDS011;37986;51.238;17.128;2024-01-30T10:22:40;0.50;;;0.50;;
51961;SDS011;37986;51.238;17.128;2024-01-30T10:25:10;0.30;;;0.30;;
51961;SDS011;37986;51.238;17.128;2024-01-30T10:27:39;0.30;;;0.30;;
51961;SDS011;37986;51.238;17.128;2024-01-30T10:30:06;0.30;;;0.30;;
51961;SDS011;37986;51.238;17.128;2024-01-30T10:32:34;0.90;;;0.90;;
51961;SDS011;37986;51.238;17.128;2024-01-30T10:35:00;0.40;;;0.40;;
51961;SDS011;37986;51.238;17.128;2024-01-30T10:37:27;0.30;;;0.30;;
51961;SDS011;37986;51.238;17.128;2024-01-30T10:39:57;0.40;;;0.40;;
51961;SDS011;37986;51.238;17.128;2024-01-30T10:42:26;0.40;;;0.40;;
51961;SDS011;37986;51.238;17.128;2024-01-30T10:45:10;0.40;;;0.40;;
51961;SDS011;37986;51.238;17.128;2024-01-30T10:47:52;0.30;;;0.30;;
51961;SDS011;37986;51.238;17.128;2024-01-30T10:50:21;0.50;;;0.50;;
51961;SDS011;37986;51.238;17.128;2024-01-30T10:52:51;12.10;;;2.80;;
51961;SDS011;37986;51.238;17.128;2024-01-30T10:55:18;0.60;;;0.60;;
51961;SDS011;37986;51.238;17.128;2024-01-30T10:57:45;2.70;;;1.90;;
51961;SDS011;37986;51.238;17.128;2024-01-30T11:00:13;0.70;;;0.70;;
51961;SDS011;37986;51.238;17.128;2024-01-30T11:02:42;0.90;;;0.70;;
51961;SDS011;37986;51.238;17.128;2024-01-30T11:05:10;0.70;;;0.70;;
51961;SDS011;37986;51.238;17.128;2024-01-30T11:07:38;1.20;;;1.20;;
51961;SDS011;37986;51.238;17.128;2024-01-30T11:10:07;0.30;;;0.30;;
51961;SDS011;37986;51.238;17.128;2024-01-30T11:12:39;0.30;;;0.30;;
51961;SDS011;37986;51.238;17.128;2024-01-30T11:15:11;0.50;;;0.50;;
51961;SDS011;37986;51.238;17.128;2024-01-30T11:17:53;0.50;;;0.50;;
51961;SDS011;37986;51.238;17.128;2024-01-30T11:20:21;0.30;;;0.30;;
51961;SDS011;37986;51.238;17.128;2024-01-30T11:22:50;0.50;;;0.50;;
51961;SDS011;37986;51.238;17.128;2024-01-30T11:25:19;0.30;;;0.30;;
51961;SDS011;37986;51.238;17.128;2024-01-30T11:27:47;0.30;;;0.30;;
51961;SDS011;37986;51.238;17.128;2024-01-30T11:30:23;0.40;;;0.40;;
51961;SDS011;37986;51.238;17.128;2024-01-30T11:35:33;0.80;;;0.80;;
51961;SDS011;37986;51.238;17.128;2024-01-30T11:38:01;1.70;;;1.00;;
51961;SDS011;37986;51.238;17.128;2024-01-30T11:40:29;0.30;;;0.30;;
51961;SDS011;37986;51.238;17.128;2024-01-30T11:42:58;5.60;;;0.60;;
51961;SDS011;37986;51.238;17.128;2024-01-30T11:45:26;2.10;;;1.40;;
51961;SDS011;37986;51.238;17.128;2024-01-30T11:47:53;0.20;;;0.20;;
51961;SDS011;37986;51.238;17.128;2024-01-30T11:50:21;0.30;;;0.30;;
51961;SDS011;37986;51.238;17.128;2024-01-30T11:52:48;0.50;;;0.50;;
51961;SDS011;37986;51.238;17.128;2024-01-30T11:55:15;0.40;;;0.40;;
51961;SDS011;37986;51.238;17.128;2024-01-30T11:57:41;0.30;;;0.30;;
51961;SDS011;37986;51.238;17.128;2024-01-30T12:00:17;0.30;;;0.30;;
51961;SDS011;37986;51.238;17.128;2024-01-30T12:02:48;0.30;;;0.30;;
51961;SDS011;37986;51.238;17.128;2024-01-30T12:05:16;0.80;;;0.80;;
51961;SDS011;37986;51.238;17.128;2024-01-30T12:07:45;0.20;;;0.20;;
51961;SDS011;37986;51.238;17.128;2024-01-30T12:10:13;0.30;;;0.30;;
51961;SDS011;37986;51.238;17.128;2024-01-30T12:12:44;0.30;;;0.30;;
51961;SDS011;37986;51.238;17.128;2024-01-30T12:15:15;1.10;;;1.10;;
51961;SDS011;37986;51.238;17.128;2024-01-30T12:17:42;0.30;;;0.30;;
51961;SDS011;37986;51.238;17.128;2024-01-30T12:20:12;0.30;;;0.30;;
51961;SDS011;37986;51.238;17.128;2024-01-30T12:22:41;0.30;;;0.30;;
51961;SDS011;37986;51.238;17.128;2024-01-30T12:25:18;0.30;;;0.30;;
51961;SDS011;37986;51.238;17.128;2024-01-30T12:27:47;0.30;;;0.30;;
51961;SDS011;37986;51.238;17.128;2024-01-30T12:30:16;0.90;;;0.90;;
51961;SDS011;37986;51.238;17.128;2024-01-30T12:32:44;0.30;;;0.30;;
51961;SDS011;37986;51.238;17.128;2024-01-30T12:35:12;0.50;;;0.50;;
51961;SDS011;37986;51.238;17.128;2024-01-30T12:37:40;2.00;;;0.70;;
51961;SDS011;37986;51.238;17.128;2024-01-30T12:40:07;0.30;;;0.30;;
51961;SDS011;37986;51.238;17.128;2024-01-30T12:42:35;0.30;;;0.30;;
51961;SDS011;37986;51.238;17.128;2024-01-30T12:45:02;0.60;;;0.60;;
51961;SDS011;37986;51.238;17.128;2024-01-30T12:47:33;0.30;;;0.30;;
51961;SDS011;37986;51.238;17.128;2024-01-30T12:50:00;0.50;;;0.50;;
51961;SDS011;37986;51.238;17.128;2024-01-30T12:52:27;0.30;;;0.30;;
51961;SDS011;37986;51.238;17.128;2024-01-30T12:54:53;0.30;;;0.30;;
51961;SDS011;37986;51.238;17.128;2024-01-30T12:57:20;4.90;;;2.70;;
51961;SDS011;37986;51.238;17.128;2024-01-30T12:59:47;3.10;;;2.30;;
51961;SDS011;37986;51.238;17.128;2024-01-30T13:02:14;0.30;;;0.30;;
51961;SDS011;37986;51.238;17.128;2024-01-30T13:04:41;0.30;;;0.30;;
51961;SDS011;37986;51.238;17.128;2024-01-30T13:07:08;1.00;;;1.00;;
51961;SDS011;37986;51.238;17.128;2024-01-30T13:09:35;0.30;;;0.30;;
51961;SDS011;37986;51.238;17.128;2024-01-30T13:12:01;1.00;;;0.90;;
51961;SDS011;37986;51.238;17.128;2024-01-30T13:14:28;0.30;;;0.30;;
51961;SDS011;37986;51.238;17.128;2024-01-30T13:16:55;0.20;;;0.20;;
51961;SDS011;37986;51.238;17.128;2024-01-30T13:19:21;0.20;;;0.20;;
51961;SDS011;37986;51.238;17.128;2024-01-30T13:21:48;0.90;;;0.90;;
51961;SDS011;37986;51.238;17.128;2024-01-30T13:24:14;0.30;;;0.30;;
51961;SDS011;37986;51.238;17.128;2024-01-30T13:26:42;0.30;;;0.30;;
51961;SDS011;37986;51.238;17.128;2024-01-30T13:29:09;0.50;;;0.50;;
51961;SDS011;37986;51.238;17.128;2024-01-30T13:31:35;0.50;;;0.50;;
51961;SDS011;37986;51.238;17.128;2024-01-30T13:34:02;0.20;;;0.20;;
51961;SDS011;37986;51.238;17.128;2024-01-30T13:36:29;0.40;;;0.40;;
51961;SDS011;37986;51.238;17.128;2024-01-30T13:38:55;3.40;;;1.20;;
51961;SDS011;37986;51.238;17.128;2024-01-30T13:41:22;2.10;;;2.00;;
51961;SDS011;37986;51.238;17.128;2024-01-30T13:43:49;0.60;;;0.60;;
51961;SDS011;37986;51.238;17.128;2024-01-30T13:46:15;0.30;;;0.30;;
51961;SDS011;37986;51.238;17.128;2024-01-30T13:48:42;15.20;;;1.10;;
51961;SDS011;37986;51.238;17.128;2024-01-30T13:51:08;0.30;;;0.30;;
51961;SDS011;37986;51.238;17.128;2024-01-30T13:53:35;1.00;;;0.90;;
51961;SDS011;37986;51.238;17.128;2024-01-30T13:56:01;2.80;;;1.00;;
51961;SDS011;37986;51.238;17.128;2024-01-30T13:58:28;0.70;;;0.70;;
51961;SDS011;37986;51.238;17.128;2024-01-30T14:00:55;0.30;;;0.30;;
51961;SDS011;37986;51.238;17.128;2024-01-30T14:03:21;4.20;;;1.50;;
51961;SDS011;37986;51.238;17.128;2024-01-30T14:05:48;1.30;;;1.20;;
51961;SDS011;37986;51.238;17.128;2024-01-30T14:08:15;2.80;;;1.00;;
51961;SDS011;37986;51.238;17.128;2024-01-30T14:10:41;1.20;;;1.20;;
51961;SDS011;37986;51.238;17.128;2024-01-30T14:13:08;0.30;;;0.30;;
51961;SDS011;37986;51.238;17.128;2024-01-30T14:15:35;2.20;;;2.10;;
51961;SDS011;37986;51.238;17.128;2024-01-30T14:18:01;0.70;;;0.70;;
51961;SDS011;37986;51.238;17.128;2024-01-30T14:20:28;0.30;;;0.30;;
51961;SDS011;37986;51.238;17.128;2024-01-30T14:22:54;0.90;;;0.90;;
51961;SDS011;37986;51.238;17.128;2024-01-30T14:25:21;0.30;;;0.30;;
51961;SDS011;37986;51.238;17.128;2024-01-30T14:27:48;3.30;;;2.20;;
51961;SDS011;37986;51.238;17.128;2024-01-30T14:30:15;0.60;;;0.60;;
51961;SDS011;37986;51.238;17.128;2024-01-30T14:32:41;0.30;;;0.30;;
51961;SDS011;37986;51.238;17.128;2024-01-30T14:35:10;2.00;;;1.10;;